sensor_id;sensor_type;location;lat;lon;timestamp;pressure;altitude;pressure_sealevel;temperature;humidity
75538;BME280;64121;48.666;8.114;2022-11-15T00:00:17;99775.81;;;8.31;93.29
75538;BME280;64121;48.666;8.114;2022-11-15T00:02:44;99782.72;;;8.25;93.07
75538;BME280;64121;48.666;8.114;2022-11-15T00:05:09;99783.41;;;8.22;92.86
75538;BME280;64121;48.666;8.114;2022-11-15T00:07:34;99786.31;;;8.25;93.59
75538;BME280;64121;48.666;8.114;2022-11-15T00:10:00;99783.06;;;8.23;93.66
75538;BME280;64121;48.666;8.114;2022-11-15T00:12:26;99777.88;;;8.22;93.75
75538;BME280;64121;48.666;8.114;2022-11-15T00:14:52;99774.28;;;8.21;93.53
75538;BME280;64121;48.666;8.114;2022-11-15T00:17:17;99780.31;;;8.23;93.54
75538;BME280;64121;48.666;8.114;2022-11-15T00:19:44;99771.88;;;8.19;93.82
75538;BME280;64121;48.666;8.114;2022-11-15T00:22:09;99774.28;;;8.21;94.28
75538;BME280;64121;48.666;8.114;2022-11-15T00:24:34;99769.75;;;8.16;94.13
75538;BME280;64121;48.666;8.114;2022-11-15T00:27:00;99766.50;;;8.14;94.42
75538;BME280;64121;48.666;8.114;2022-11-15T00:29:25;99753.66;;;8.31;94.29
75538;BME280;64121;48.666;8.114;2022-11-15T00:31:50;99751.56;;;8.28;94.12
75538;BME280;64121;48.666;8.114;2022-11-15T00:34:15;99744.75;;;8.25;94.01
75538;BME280;64121;48.666;8.114;2022-11-15T00:36:42;99745.81;;;8.33;94.52
75538;BME280;64121;48.666;8.114;2022-11-15T00:39:07;99749.59;;;8.28;94.26
75538;BME280;64121;48.666;8.114;2022-11-15T00:41:33;99747.16;;;8.27;94.77
75538;BME280;64121;48.666;8.114;2022-11-15T00:43:58;99742.09;;;8.29;94.78
75538;BME280;64121;48.666;8.114;2022-11-15T00:46:23;99739.94;;;8.34;94.38
75538;BME280;64121;48.666;8.114;2022-11-15T00:48:49;99731.78;;;8.38;94.36
75538;BME280;64121;48.666;8.114;2022-11-15T00:51:14;99731.91;;;8.41;93.96
75538;BME280;64121;48.666;8.114;2022-11-15T00:53:41;99727.31;;;8.45;94.24
75538;BME280;64121;48.666;8.114;2022-11-15T00:56:06;99731.22;;;8.44;94.29
75538;BME280;64121;48.666;8.114;2022-11-15T00:58:32;99732.50;;;8.47;94.26
75538;BME280;64121;48.666;8.114;2022-11-15T01:01:05;99733.25;;;8.56;93.70
75538;BME280;64121;48.666;8.114;2022-11-15T01:03:32;99730.47;;;8.56;94.13
75538;BME280;64121;48.666;8.114;2022-11-15T01:05:58;99734.06;;;8.57;93.88
75538;BME280;64121;48.666;8.114;2022-11-15T01:08:24;99735.06;;;8.52;93.71
75538;BME280;64121;48.666;8.114;2022-11-15T01:10:50;99737.81;;;8.52;93.89
75538;BME280;64121;48.666;8.114;2022-11-15T01:13:16;99735.06;;;8.52;93.31
75538;BME280;64121;48.666;8.114;2022-11-15T01:15:41;99727.53;;;8.53;93.58
75538;BME280;64121;48.666;8.114;2022-11-15T01:18:07;99728.16;;;8.58;93.73
75538;BME280;64121;48.666;8.114;2022-11-15T01:20:32;99728.63;;;8.60;93.61
75538;BME280;64121;48.666;8.114;2022-11-15T01:22:57;99731.28;;;8.57;93.24
75538;BME280;64121;48.666;8.114;2022-11-15T01:25:23;99721.00;;;8.57;93.90
75538;BME280;64121;48.666;8.114;2022-11-15T01:27:49;99720.44;;;8.64;93.83
75538;BME280;64121;48.666;8.114;2022-11-15T01:30:15;99718.34;;;8.61;93.78
75538;BME280;64121;48.666;8.114;2022-11-15T01:32:40;99719.03;;;8.58;93.71
75538;BME280;64121;48.666;8.114;2022-11-15T01:35:06;99714.75;;;8.60;94.00
75538;BME280;64121;48.666;8.114;2022-11-15T01:37:31;99721.59;;;8.63;93.78
75538;BME280;64121;48.666;8.114;2022-11-15T01:39:57;99709.09;;;8.57;93.98
75538;BME280;64121;48.666;8.114;2022-11-15T01:42:22;99719.16;;;8.61;93.68
75538;BME280;64121;48.666;8.114;2022-11-15T01:44:50;99695.47;;;8.64;93.98
75538;BME280;64121;48.666;8.114;2022-11-15T01:47:17;99702.06;;;8.59;94.17
75538;BME280;64121;48.666;8.114;2022-11-15T01:49:50;99698.81;;;8.69;94.77
75538;BME280;64121;48.666;8.114;2022-11-15T01:52:19;99695.00;;;8.62;93.92
75538;BME280;64121;48.666;8.114;2022-11-15T01:54:45;99702.28;;;8.66;93.70
75538;BME280;64121;48.666;8.114;2022-11-15T01:57:12;99701.47;;;8.66;93.64
75538;BME280;64121;48.666;8.114;2022-11-15T01:59:40;99693.50;;;8.64;94.00
75538;BME280;64121;48.666;8.114;2022-11-15T02:02:08;99687.16;;;8.64;94.12
75538;BME280;64121;48.666;8.114;2022-11-15T02:04:37;99675.38;;;8.67;94.10
75538;BME280;64121;48.666;8.114;2022-11-15T02:07:04;99678.38;;;8.62;93.84
75538;BME280;64121;48.666;8.114;2022-11-15T02:09:31;99674.66;;;8.58;94.58
75538;BME280;64121;48.666;8.114;2022-11-15T02:11:57;99674.22;;;8.68;94.52
75538;BME280;64121;48.666;8.114;2022-11-15T02:14:25;99666.19;;;8.54;94.29
75538;BME280;64121;48.666;8.114;2022-11-15T02:16:59;99651.16;;;8.43;95.44
75538;BME280;64121;48.666;8.114;2022-11-15T02:19:48;99656.25;;;8.41;95.46
75538;BME280;64121;48.666;8.114;2022-11-15T02:22:23;99647.59;;;8.42;95.61
75538;BME280;64121;48.666;8.114;2022-11-15T02:25:04;99657.41;;;8.40;95.22
75538;BME280;64121;48.666;8.114;2022-11-15T02:27:57;99651.03;;;8.39;95.22
75538;BME280;64121;48.666;8.114;2022-11-15T02:30:35;99654.41;;;8.45;95.14
75538;BME280;64121;48.666;8.114;2022-11-15T02:33:13;99655.78;;;8.51;94.94
75538;BME280;64121;48.666;8.114;2022-11-15T02:35:44;99660.09;;;8.61;94.85
75538;BME280;64121;48.666;8.114;2022-11-15T02:38:17;99652.72;;;8.65;94.70
75538;BME280;64121;48.666;8.114;2022-11-15T02:40:52;99658.72;;;8.67;94.88
75538;BME280;64121;48.666;8.114;2022-11-15T02:43:25;99655.03;;;8.63;94.94
75538;BME280;64121;48.666;8.114;2022-11-15T02:46:00;99652.59;;;8.61;95.24
75538;BME280;64121;48.666;8.114;2022-11-15T02:48:28;99638.28;;;8.59;95.23
75538;BME280;64121;48.666;8.114;2022-11-15T02:50:54;99642.19;;;8.58;95.44
75538;BME280;64121;48.666;8.114;2022-11-15T02:53:24;99637.47;;;8.59;95.25
75538;BME280;64121;48.666;8.114;2022-11-15T02:55:50;99643.34;;;8.57;95.38
75538;BME280;64121;48.666;8.114;2022-11-15T02:58:33;99640.56;;;8.57;95.38
75538;BME280;64121;48.666;8.114;2022-11-15T03:01:12;99632.94;;;8.66;95.42
75538;BME280;64121;48.666;8.114;2022-11-15T03:03:49;99631.22;;;8.62;95.37
75538;BME280;64121;48.666;8.114;2022-11-15T03:06:24;99631.44;;;8.57;95.62
75538;BME280;64121;48.666;8.114;2022-11-15T03:08:59;99630.84;;;8.51;95.93
75538;BME280;64121;48.666;8.114;2022-11-15T03:11:29;99629.91;;;8.47;95.66
75538;BME280;64121;48.666;8.114;2022-11-15T03:13:58;99629.56;;;8.48;96.04
75538;BME280;64121;48.666;8.114;2022-11-15T03:16:29;99619.63;;;8.47;95.92
75538;BME280;64121;48.666;8.114;2022-11-15T03:18:57;99624.50;;;8.50;95.98
75538;BME280;64121;48.666;8.114;2022-11-15T03:21:27;99621.50;;;8.56;96.37
75538;BME280;64121;48.666;8.114;2022-11-15T03:23:54;99623.81;;;8.66;96.02
75538;BME280;64121;48.666;8.114;2022-11-15T03:26:23;99622.44;;;8.72;95.32
75538;BME280;64121;48.666;8.114;2022-11-15T03:28:50;99621.41;;;8.76;94.97
75538;BME280;64121;48.666;8.114;2022-11-15T03:31:18;99621.19;;;8.82;95.39
75538;BME280;64121;48.666;8.114;2022-11-15T03:33:47;99626.63;;;8.78;94.88
75538;BME280;64121;48.666;8.114;2022-11-15T03:36:14;99624.06;;;8.85;94.55
75538;BME280;64121;48.666;8.114;2022-11-15T03:38:41;99629.16;;;8.83;94.25
75538;BME280;64121;48.666;8.114;2022-11-15T03:41:13;99625.56;;;8.83;94.57
75538;BME280;64121;48.666;8.114;2022-11-15T03:43:46;99635.28;;;8.76;95.56
75538;BME280;64121;48.666;8.114;2022-11-15T03:46:13;99629.84;;;8.80;95.63
75538;BME280;64121;48.666;8.114;2022-11-15T03:48:43;99638.28;;;8.71;96.14
75538;BME280;64121;48.666;8.114;2022-11-15T03:51:12;99623.03;;;8.77;95.99
75538;BME280;64121;48.666;8.114;2022-11-15T03:53:38;99626.72;;;8.69;96.38
75538;BME280;64121;48.666;8.114;2022-11-15T03:56:06;99629.75;;;8.76;96.18
75538;BME280;64121;48.666;8.114;2022-11-15T03:58:31;99619.00;;;8.75;96.52
75538;BME280;64121;48.666;8.114;2022-11-15T04:00:57;99626.81;;;8.73;96.11
75538;BME280;64121;48.666;8.114;2022-11-15T04:03:22;99627.44;;;8.78;96.29
75538;BME280;64121;48.666;8.114;2022-11-15T04:05:47;99629.97;;;8.84;95.53
75538;BME280;64121;48.666;8.114;2022-11-15T04:08:14;99626.28;;;8.79;95.77
75538;BME280;64121;48.666;8.114;2022-11-15T04:10:39;99623.97;;;8.82;95.87
75538;BME280;64121;48.666;8.114;2022-11-15T04:13:04;99625.34;;;8.75;96.21
75538;BME280;64121;48.666;8.114;2022-11-15T04:15:30;99625.91;;;8.81;96.29
75538;BME280;64121;48.666;8.114;2022-11-15T04:17:56;99627.44;;;8.78;95.91
75538;BME280;64121;48.666;8.114;2022-11-15T04:20:23;99626.38;;;8.83;96.20
75538;BME280;64121;48.666;8.114;2022-11-15T04:22:52;99617.13;;;8.79;96.37
75538;BME280;64121;48.666;8.114;2022-11-15T04:25:19;99607.56;;;8.76;96.90
75538;BME280;64121;48.666;8.114;2022-11-15T04:27:44;99615.88;;;8.76;96.72
75538;BME280;64121;48.666;8.114;2022-11-15T04:30:10;99619.09;;;8.78;96.61
75538;BME280;64121;48.666;8.114;2022-11-15T04:32:35;99619.91;;;8.79;96.43
75538;BME280;64121;48.666;8.114;2022-11-15T04:35:00;99613.31;;;8.84;96.09
75538;BME280;64121;48.666;8.114;2022-11-15T04:37:26;99612.50;;;8.83;95.98
75538;BME280;64121;48.666;8.114;2022-11-15T04:39:51;99613.22;;;8.80;95.98
75538;BME280;64121;48.666;8.114;2022-11-15T04:42:18;99608.00;;;8.78;96.28
75538;BME280;64121;48.666;8.114;2022-11-15T04:44:43;99603.00;;;8.72;96.49
75538;BME280;64121;48.666;8.114;2022-11-15T04:47:08;99599.31;;;8.68;96.82
75538;BME280;64121;48.666;8.114;2022-11-15T04:49:34;99603.94;;;8.64;96.82
75538;BME280;64121;48.666;8.114;2022-11-15T04:51:59;99599.09;;;8.61;96.64
75538;BME280;64121;48.666;8.114;2022-11-15T04:54:24;99596.66;;;8.59;96.55
75538;BME280;64121;48.666;8.114;2022-11-15T04:56:50;99600.47;;;8.55;97.12
75538;BME280;64121;48.666;8.114;2022-11-15T04:59:16;99600.94;;;8.57;96.99
75538;BME280;64121;48.666;8.114;2022-11-15T05:01:41;99599.34;;;8.56;96.79
75538;BME280;64121;48.666;8.114;2022-11-15T05:04:07;99602.06;;;8.43;97.00
75538;BME280;64121;48.666;8.114;2022-11-15T05:06:32;99595.25;;;8.53;96.84
75538;BME280;64121;48.666;8.114;2022-11-15T05:08:57;99596.22;;;8.57;97.08
75538;BME280;64121;48.666;8.114;2022-11-15T05:11:23;99595.72;;;8.55;96.48
75538;BME280;64121;48.666;8.114;2022-11-15T05:13:49;99597.81;;;8.46;96.69
75538;BME280;64121;48.666;8.114;2022-11-15T05:16:15;99590.19;;;8.43;96.69
75538;BME280;64121;48.666;8.114;2022-11-15T05:18:41;99584.63;;;8.43;97.30
75538;BME280;64121;48.666;8.114;2022-11-15T05:21:08;99584.06;;;8.37;97.43
75538;BME280;64121;48.666;8.114;2022-11-15T05:23:33;99583.91;;;8.34;97.13
75538;BME280;64121;48.666;8.114;2022-11-15T05:25:59;99585.53;;;8.35;97.52
75538;BME280;64121;48.666;8.114;2022-11-15T05:28:25;99588.09;;;8.40;98.01
75538;BME280;64121;48.666;8.114;2022-11-15T05:30:50;99596.94;;;8.33;97.72
75538;BME280;64121;48.666;8.114;2022-11-15T05:33:17;99599.59;;;8.30;97.48
75538;BME280;64121;48.666;8.114;2022-11-15T05:35:46;99588.59;;;8.33;97.78
75538;BME280;64121;48.666;8.114;2022-11-15T05:38:14;99595.66;;;8.31;97.85
75538;BME280;64121;48.666;8.114;2022-11-15T05:40:39;99589.75;;;8.32;98.01
75538;BME280;64121;48.666;8.114;2022-11-15T05:43:05;99586.69;;;8.34;98.63
75538;BME280;64121;48.666;8.114;2022-11-15T05:45:31;99590.56;;;8.33;98.67
75538;BME280;64121;48.666;8.114;2022-11-15T05:47:58;99586.81;;;8.37;98.17
75538;BME280;64121;48.666;8.114;2022-11-15T05:50:27;99584.97;;;8.41;98.12
75538;BME280;64121;48.666;8.114;2022-11-15T05:52:54;99575.97;;;8.44;98.29
75538;BME280;64121;48.666;8.114;2022-11-15T05:55:19;99578.75;;;8.57;97.63
75538;BME280;64121;48.666;8.114;2022-11-15T05:57:45;99578.63;;;8.53;97.63
75538;BME280;64121;48.666;8.114;2022-11-15T06:00:11;99577.16;;;8.56;97.74
75538;BME280;64121;48.666;8.114;2022-11-15T06:02:37;99582.34;;;8.57;97.79
75538;BME280;64121;48.666;8.114;2022-11-15T06:05:03;99580.16;;;8.63;97.44
75538;BME280;64121;48.666;8.114;2022-11-15T06:07:30;99582.34;;;8.69;97.17
75538;BME280;64121;48.666;8.114;2022-11-15T06:09:55;99572.41;;;8.68;97.37
75538;BME280;64121;48.666;8.114;2022-11-15T06:12:20;99575.41;;;8.63;97.96
75538;BME280;64121;48.666;8.114;2022-11-15T06:14:46;99575.19;;;8.56;97.69
75538;BME280;64121;48.666;8.114;2022-11-15T06:17:11;99576.31;;;8.55;98.27
75538;BME280;64121;48.666;8.114;2022-11-15T06:19:36;99572.25;;;8.53;98.05
75538;BME280;64121;48.666;8.114;2022-11-15T06:22:01;99576.00;;;8.57;97.98
75538;BME280;64121;48.666;8.114;2022-11-15T06:24:28;99565.47;;;8.62;97.87
75538;BME280;64121;48.666;8.114;2022-11-15T06:26:53;99566.59;;;8.73;97.35
75538;BME280;64121;48.666;8.114;2022-11-15T06:29:19;99568.72;;;8.76;97.03
75538;BME280;64121;48.666;8.114;2022-11-15T06:31:44;99567.06;;;8.88;96.84
75538;BME280;64121;48.666;8.114;2022-11-15T06:34:10;99562.94;;;8.82;96.46
75538;BME280;64121;48.666;8.114;2022-11-15T06:36:35;99558.53;;;8.80;96.64
75538;BME280;64121;48.666;8.114;2022-11-15T06:39:00;99557.47;;;8.73;96.90
75538;BME280;64121;48.666;8.114;2022-11-15T06:41:27;99551.00;;;8.69;97.62
75538;BME280;64121;48.666;8.114;2022-11-15T06:43:53;99556.91;;;8.67;97.40
75538;BME280;64121;48.666;8.114;2022-11-15T06:46:18;99554.84;;;8.64;97.68
75538;BME280;64121;48.666;8.114;2022-11-15T06:48:43;99566.75;;;8.65;98.36
75538;BME280;64121;48.666;8.114;2022-11-15T06:51:09;99553.56;;;8.62;98.16
75538;BME280;64121;48.666;8.114;2022-11-15T06:53:34;99560.28;;;8.61;97.97
75538;BME280;64121;48.666;8.114;2022-11-15T06:56:00;99561.44;;;8.60;98.12
75538;BME280;64121;48.666;8.114;2022-11-15T06:58:27;99565.47;;;8.62;98.04
75538;BME280;64121;48.666;8.114;2022-11-15T07:00:53;99567.91;;;8.64;98.16
75538;BME280;64121;48.666;8.114;2022-11-15T07:03:18;99577.72;;;8.61;98.21
75538;BME280;64121;48.666;8.114;2022-11-15T07:05:51;99578.06;;;8.60;97.70
75538;BME280;64121;48.666;8.114;2022-11-15T07:08:16;99584.88;;;8.62;98.33
75538;BME280;64121;48.666;8.114;2022-11-15T07:10:41;99582.47;;;8.61;98.37
75538;BME280;64121;48.666;8.114;2022-11-15T07:13:07;99580.50;;;8.61;98.25
75538;BME280;64121;48.666;8.114;2022-11-15T07:15:33;99581.75;;;8.64;97.92
75538;BME280;64121;48.666;8.114;2022-11-15T07:18:00;99577.84;;;8.65;98.09
75538;BME280;64121;48.666;8.114;2022-11-15T07:20:25;99580.03;;;8.71;98.49
75538;BME280;64121;48.666;8.114;2022-11-15T07:22:50;99579.91;;;8.68;98.22
75538;BME280;64121;48.666;8.114;2022-11-15T07:25:16;99576.78;;;8.69;98.35
75538;BME280;64121;48.666;8.114;2022-11-15T07:27:41;99570.44;;;8.69;98.56
75538;BME280;64121;48.666;8.114;2022-11-15T07:30:07;99562.22;;;8.72;98.44
75538;BME280;64121;48.666;8.114;2022-11-15T07:32:35;99566.28;;;8.75;98.57
75538;BME280;64121;48.666;8.114;2022-11-15T07:35:00;99557.63;;;8.76;98.51
75538;BME280;64121;48.666;8.114;2022-11-15T07:37:26;99552.63;;;8.82;98.25
75538;BME280;64121;48.666;8.114;2022-11-15T07:39:51;99557.94;;;8.87;98.74
75538;BME280;64121;48.666;8.114;2022-11-15T07:42:16;99569.63;;;8.93;98.67
75538;BME280;64121;48.666;8.114;2022-11-15T07:44:41;99572.53;;;8.96;98.25
75538;BME280;64121;48.666;8.114;2022-11-15T07:47:07;99578.28;;;9.03;97.98
75538;BME280;64121;48.666;8.114;2022-11-15T07:49:34;99574.47;;;9.08;97.40
75538;BME280;64121;48.666;8.114;2022-11-15T07:51:59;99572.72;;;9.16;97.46
75538;BME280;64121;48.666;8.114;2022-11-15T07:54:24;99566.56;;;9.22;97.89
75538;BME280;64121;48.666;8.114;2022-11-15T07:56:50;99571.88;;;9.27;97.24
75538;BME280;64121;48.666;8.114;2022-11-15T07:59:15;99559.38;;;9.33;97.45
75538;BME280;64121;48.666;8.114;2022-11-15T08:01:40;99561.09;;;9.38;97.72
75538;BME280;64121;48.666;8.114;2022-11-15T08:04:05;99563.63;;;9.43;97.56
75538;BME280;64121;48.666;8.114;2022-11-15T08:06:32;99567.09;;;9.52;97.50
75538;BME280;64121;48.666;8.114;2022-11-15T08:08:57;99561.63;;;9.56;97.77
75538;BME280;64121;48.666;8.114;2022-11-15T08:11:23;99556.63;;;9.61;97.75
75538;BME280;64121;48.666;8.114;2022-11-15T08:13:48;99557.53;;;9.65;97.15
75538;BME280;64121;48.666;8.114;2022-11-15T08:16:14;99547.91;;;9.75;97.39
75538;BME280;64121;48.666;8.114;2022-11-15T08:18:39;99548.44;;;9.81;97.14
75538;BME280;64121;48.666;8.114;2022-11-15T08:21:04;99546.69;;;9.88;96.34
75538;BME280;64121;48.666;8.114;2022-11-15T08:23:31;99549.91;;;9.90;96.21
75538;BME280;64121;48.666;8.114;2022-11-15T08:26:00;99552.06;;;9.97;96.68
75538;BME280;64121;48.666;8.114;2022-11-15T08:28:26;99549.16;;;10.06;97.23
75538;BME280;64121;48.666;8.114;2022-11-15T08:30:51;99547.25;;;10.10;97.30
75538;BME280;64121;48.666;8.114;2022-11-15T08:33:17;99546.81;;;10.08;97.94
75538;BME280;64121;48.666;8.114;2022-11-15T08:35:43;99544.94;;;10.12;97.35
75538;BME280;64121;48.666;8.114;2022-11-15T08:38:09;99542.50;;;10.10;98.22
75538;BME280;64121;48.666;8.114;2022-11-15T08:40:36;99540.44;;;10.07;97.76
75538;BME280;64121;48.666;8.114;2022-11-15T08:43:02;99539.03;;;10.13;97.46
75538;BME280;64121;48.666;8.114;2022-11-15T08:45:27;99539.19;;;10.20;97.39
75538;BME280;64121;48.666;8.114;2022-11-15T08:47:53;99546.50;;;10.25;97.04
75538;BME280;64121;48.666;8.114;2022-11-15T08:50:18;99541.84;;;10.29;97.69
75538;BME280;64121;48.666;8.114;2022-11-15T08:52:43;99539.59;;;10.35;97.88
75538;BME280;64121;48.666;8.114;2022-11-15T08:55:09;99532.59;;;10.41;98.39
75538;BME280;64121;48.666;8.114;2022-11-15T08:57:36;99535.50;;;10.44;98.07
75538;BME280;64121;48.666;8.114;2022-11-15T09:00:01;99536.81;;;10.50;97.65
75538;BME280;64121;48.666;8.114;2022-11-15T09:02:26;99536.09;;;10.53;97.92
75538;BME280;64121;48.666;8.114;2022-11-15T09:04:52;99528.66;;;10.57;98.33
75538;BME280;64121;48.666;8.114;2022-11-15T09:07:17;99531.63;;;10.65;98.67
75538;BME280;64121;48.666;8.114;2022-11-15T09:09:43;99532.06;;;10.67;97.99
75538;BME280;64121;48.666;8.114;2022-11-15T09:12:08;99535.00;;;10.74;98.06
75538;BME280;64121;48.666;8.114;2022-11-15T09:14:35;99529.00;;;10.72;98.02
75538;BME280;64121;48.666;8.114;2022-11-15T09:17:01;99528.34;;;10.78;98.05
75538;BME280;64121;48.666;8.114;2022-11-15T09:19:26;99531.25;;;10.82;97.75
75538;BME280;64121;48.666;8.114;2022-11-15T09:21:52;99532.06;;;10.82;97.76
75538;BME280;64121;48.666;8.114;2022-11-15T09:24:17;99531.31;;;10.85;97.83
75538;BME280;64121;48.666;8.114;2022-11-15T09:26:43;99533.31;;;10.85;97.22
75538;BME280;64121;48.666;8.114;2022-11-15T09:29:09;99537.03;;;10.92;97.60
75538;BME280;64121;48.666;8.114;2022-11-15T09:31:36;99528.69;;;10.92;96.99
75538;BME280;64121;48.666;8.114;2022-11-15T09:34:01;99529.13;;;10.95;96.82
75538;BME280;64121;48.666;8.114;2022-11-15T09:36:26;99538.91;;;11.04;97.01
75538;BME280;64121;48.666;8.114;2022-11-15T09:38:52;99533.44;;;11.08;97.29
75538;BME280;64121;48.666;8.114;2022-11-15T09:44:39;99540.59;;;11.09;97.95
75538;BME280;64121;48.666;8.114;2022-11-15T09:47:25;99544.47;;;11.04;97.36
75538;BME280;64121;48.666;8.114;2022-11-15T09:49:58;99537.47;;;11.10;97.98
75538;BME280;64121;48.666;8.114;2022-11-15T09:52:24;99538.63;;;11.09;96.99
75538;BME280;64121;48.666;8.114;2022-11-15T09:54:51;99544.94;;;11.06;97.45
75538;BME280;64121;48.666;8.114;2022-11-15T09:57:31;99545.38;;;11.08;96.76
75538;BME280;64121;48.666;8.114;2022-11-15T10:00:13;99544.03;;;11.02;96.19
75538;BME280;64121;48.666;8.114;2022-11-15T10:02:55;99545.22;;;11.01;96.76
75538;BME280;64121;48.666;8.114;2022-11-15T10:05:24;99544.94;;;11.06;96.71
75538;BME280;64121;48.666;8.114;2022-11-15T10:07:57;99540.31;;;11.14;96.97
75538;BME280;64121;48.666;8.114;2022-11-15T10:10:27;99540.56;;;11.25;97.17
75538;BME280;64121;48.666;8.114;2022-11-15T10:12:55;99542.91;;;11.22;97.81
75538;BME280;64121;48.666;8.114;2022-11-15T10:15:21;99538.22;;;11.27;97.83
75538;BME280;64121;48.666;8.114;2022-11-15T10:18:00;99533.16;;;11.32;98.38
75538;BME280;64121;48.666;8.114;2022-11-15T10:20:30;99527.59;;;11.32;98.49
75538;BME280;64121;48.666;8.114;2022-11-15T10:23:00;99530.53;;;11.39;98.40
75538;BME280;64121;48.666;8.114;2022-11-15T10:25:27;99528.78;;;11.50;98.62
75538;BME280;64121;48.666;8.114;2022-11-15T10:27:56;99525.78;;;11.59;97.92
75538;BME280;64121;48.666;8.114;2022-11-15T10:30:23;99520.34;;;11.66;97.71
75538;BME280;64121;48.666;8.114;2022-11-15T10:32:48;99526.88;;;11.74;98.08
75538;BME280;64121;48.666;8.114;2022-11-15T10:35:26;99508.19;;;11.94;97.84
75538;BME280;64121;48.666;8.114;2022-11-15T10:38:04;99507.88;;;11.99;97.12
75538;BME280;64121;48.666;8.114;2022-11-15T10:40:30;99497.97;;;12.24;96.48
75538;BME280;64121;48.666;8.114;2022-11-15T10:43:05;99493.75;;;12.34;96.16
75538;BME280;64121;48.666;8.114;2022-11-15T10:45:33;99477.03;;;12.34;95.93
75538;BME280;64121;48.666;8.114;2022-11-15T10:48:20;99470.94;;;12.51;95.33
75538;BME280;64121;48.666;8.114;2022-11-15T10:50:48;99465.13;;;12.63;94.49
75538;BME280;64121;48.666;8.114;2022-11-15T10:53:20;99456.88;;;12.70;94.40
75538;BME280;64121;48.666;8.114;2022-11-15T10:55:50;99448.16;;;12.76;92.89
75538;BME280;64121;48.666;8.114;2022-11-15T10:58:22;99432.78;;;12.85;93.15
75538;BME280;64121;48.666;8.114;2022-11-15T11:00:53;99432.06;;;12.92;92.09
75538;BME280;64121;48.666;8.114;2022-11-15T11:03:29;99416.25;;;13.03;91.56
75538;BME280;64121;48.666;8.114;2022-11-15T11:06:07;99410.19;;;12.97;91.53
75538;BME280;64121;48.666;8.114;2022-11-15T11:08:32;99403.09;;;13.03;90.54
75538;BME280;64121;48.666;8.114;2022-11-15T11:10:59;99399.91;;;13.05;90.89
75538;BME280;64121;48.666;8.114;2022-11-15T11:13:26;99389.25;;;13.14;90.13
75538;BME280;64121;48.666;8.114;2022-11-15T11:15:55;99399.19;;;13.12;89.61
75538;BME280;64121;48.666;8.114;2022-11-15T11:18:25;99387.84;;;12.97;90.60
75538;BME280;64121;48.666;8.114;2022-11-15T11:20:58;99387.97;;;13.08;90.30
75538;BME280;64121;48.666;8.114;2022-11-15T11:23:39;99383.72;;;13.18;90.05
75538;BME280;64121;48.666;8.114;2022-11-15T11:26:18;99381.13;;;13.36;90.66
75538;BME280;64121;48.666;8.114;2022-11-15T11:28:53;99386.00;;;13.09;90.36
75538;BME280;64121;48.666;8.114;2022-11-15T11:31:29;99385.94;;;13.35;89.57
75538;BME280;64121;48.666;8.114;2022-11-15T11:34:10;99386.03;;;13.12;89.97
75538;BME280;64121;48.666;8.114;2022-11-15T11:36:46;99381.00;;;13.21;90.12
75538;BME280;64121;48.666;8.114;2022-11-15T11:39:24;99389.88;;;13.00;90.56
75538;BME280;64121;48.666;8.114;2022-11-15T11:41:58;99382.00;;;13.10;89.88
75538;BME280;64121;48.666;8.114;2022-11-15T11:44:32;99383.84;;;12.98;91.04
75538;BME280;64121;48.666;8.114;2022-11-15T11:47:00;99379.03;;;12.95;91.49
75538;BME280;64121;48.666;8.114;2022-11-15T11:49:31;99376.59;;;12.90;91.37
75538;BME280;64121;48.666;8.114;2022-11-15T11:52:02;99365.47;;;12.94;91.36
75538;BME280;64121;48.666;8.114;2022-11-15T11:54:39;99362.25;;;12.92;92.47
75538;BME280;64121;48.666;8.114;2022-11-15T11:57:12;99353.53;;;12.97;92.71
75538;BME280;64121;48.666;8.114;2022-11-15T11:59:39;99351.53;;;12.97;92.57
75538;BME280;64121;48.666;8.114;2022-11-15T12:02:13;99349.97;;;13.00;92.59
75538;BME280;64121;48.666;8.114;2022-11-15T12:04:41;99353.25;;;13.06;92.83
75538;BME280;64121;48.666;8.114;2022-11-15T12:07:13;99341.28;;;13.05;92.86
75538;BME280;64121;48.666;8.114;2022-11-15T12:09:44;99340.13;;;13.10;93.80
75538;BME280;64121;48.666;8.114;2022-11-15T12:12:16;99333.69;;;13.06;94.83
75538;BME280;64121;48.666;8.114;2022-11-15T12:14:46;99328.19;;;13.13;94.25
75538;BME280;64121;48.666;8.114;2022-11-15T12:17:15;99330.00;;;13.31;93.69
75538;BME280;64121;48.666;8.114;2022-11-15T12:19:42;99322.38;;;13.25;93.36
75538;BME280;64121;48.666;8.114;2022-11-15T12:22:11;99325.59;;;13.30;93.26
75538;BME280;64121;48.666;8.114;2022-11-15T12:24:41;99320.41;;;13.29;93.14
75538;BME280;64121;48.666;8.114;2022-11-15T12:27:16;99315.78;;;13.44;93.05
75538;BME280;64121;48.666;8.114;2022-11-15T12:29:46;99303.69;;;13.36;92.94
75538;BME280;64121;48.666;8.114;2022-11-15T12:32:21;99296.91;;;13.33;92.50
75538;BME280;64121;48.666;8.114;2022-11-15T12:34:50;99287.81;;;13.40;92.42
75538;BME280;64121;48.666;8.114;2022-11-15T12:37:49;99283.75;;;13.38;92.29
75538;BME280;64121;48.666;8.114;2022-11-15T12:40:19;99274.47;;;13.26;92.16
75538;BME280;64121;48.666;8.114;2022-11-15T12:43:02;99267.06;;;13.45;91.12
75538;BME280;64121;48.666;8.114;2022-11-15T12:45:31;99262.25;;;13.42;91.54
75538;BME280;64121;48.666;8.114;2022-11-15T12:51:06;99245.31;;;13.20;91.85
75538;BME280;64121;48.666;8.114;2022-11-15T12:53:33;99244.06;;;13.18;92.24
75538;BME280;64121;48.666;8.114;2022-11-15T12:56:20;99235.28;;;13.19;91.92
75538;BME280;64121;48.666;8.114;2022-11-15T12:58:48;99229.41;;;13.28;92.33
75538;BME280;64121;48.666;8.114;2022-11-15T13:04:25;99222.22;;;13.27;91.45
75538;BME280;64121;48.666;8.114;2022-11-15T13:06:53;99224.72;;;13.39;91.76
75538;BME280;64121;48.666;8.114;2022-11-15T13:09:51;99229.88;;;13.37;92.32
75538;BME280;64121;48.666;8.114;2022-11-15T13:15:38;99222.06;;;13.16;92.75
75538;BME280;64121;48.666;8.114;2022-11-15T13:18:28;99210.59;;;13.21;92.14
75538;BME280;64121;48.666;8.114;2022-11-15T13:20:53;99199.25;;;13.51;90.60
75538;BME280;64121;48.666;8.114;2022-11-15T13:23:21;99197.44;;;13.25;91.67
75538;BME280;64121;48.666;8.114;2022-11-15T13:26:03;99198.66;;;13.28;91.65